Cristina A — TCQY7 — position and weather

sailwx.info

Track history (hours):
 
Tides and Currents Weather Stations Pressure Air Temp Water Temp Dewpoint Dewpoint Depression Visibility Wind Speed Wind Dir Waves Ship Positions

Cristina A

Last reported at 2017-Sep-17 16:09 UTC. Time now 2017-Sep-22 10:09 UTC.
Position N 40°48' E 028°12'.

Length 184 m; draft 9.1 m.

Type: Ship (hazmat cat A). MMSI: 271001052.

Date/timePositionNaut miles runAvg speedWind from/ knotsBaromVisibWave heightAir tempDewpointWater temp
2017-Sep-17 16:09N 40°48' E 028°12'9814.0
2017-Sep-17 09:11N 40°03' E 026°17'314.3
2017-Sep-17 08:59N 40°02' E 026°14'14 7.8
2017-Sep-17 07:13N 39°56' E 025°58'3 8.0
2017-Sep-17 06:47N 39°54' E 025°55'13213.5
2017-Sep-16 21:03N 37°42' E 025°51'114.4
2017-Sep-16 21:00N 37°41' E 025°51'714.4
2017-Sep-16 20:30N 37°34' E 025°52'714.1
2017-Sep-16 20:00N 37°27' E 025°54'  
2017-Sep-14 14:58N 34°26' E 031°39'715.2
2017-Sep-14 14:31N 34°19' E 031°41'815.3
2017-Sep-14 14:00N 34°12' E 031°44'815.4
2017-Sep-14 13:30N 34°05' E 031°47'815.2
2017-Sep-14 12:59N 33°58' E 031°53'816.5
2017-Sep-14 12:29N 33°52' E 031°59'715.3
2017-Sep-14 12:00N 33°47' E 032°05'815.1
2017-Sep-14 11:27N 33°40' E 032°12'715.3
2017-Sep-14 11:00N 33°35' E 032°17'815.5
2017-Sep-14 10:30N 33°30' E 032°24'1115.5
2017-Sep-14 09:46N 33°21' E 032°33'415.4
2017-Sep-14 09:31N 33°18' E 032°36'1015.3
2017-Sep-14 08:50N 33°10' E 032°44'515.2
2017-Sep-14 08:30N 33°07' E 032°48'815.1
2017-Sep-14 07:59N 33°01' E 032°54'715.0
2017-Sep-14 07:31N 32°55' E 032°60'814.9
2017-Sep-14 07:00N 32°50' E 033°06'715.0
2017-Sep-14 06:31N 32°44' E 033°12'815.1
2017-Sep-14 05:59N 32°39' E 033°18'715.1
2017-Sep-14 05:30N 32°33' E 033°24'1315.3
2017-Sep-14 04:40N 32°24' E 033°34'715.3
2017-Sep-14 04:14N 32°19' E 033°40'315.2
2017-Sep-14 04:00N 32°16' E 033°42'815.3
2017-Sep-14 03:31N 32°11' E 033°48'815.4
2017-Sep-14 03:01N 32°06' E 033°56'815.4
2017-Sep-14 02:30N 32°03' E 034°04'815.2
2017-Sep-14 02:00N 31°59' E 034°12'815.0
2017-Sep-14 01:28N 31°56' E 034°21'17 2.2
2017-Sep-13 18:05N 31°50' E 034°39'0 0.0
2017-Sep-13 17:35N 31°50' E 034°39'0 0.0
2017-Sep-13 17:29N 31°50' E 034°39'0 0.0
2017-Sep-13 16:40N 31°50' E 034°39'0 0.0
2017-Sep-13 16:28N 31°50' E 034°39'0 0.0
2017-Sep-13 15:58N 31°50' E 034°39'0 0.0
2017-Sep-13 15:22N 31°50' E 034°39'0 0.0
2017-Sep-13 14:58N 31°50' E 034°39'0 0.0
2017-Sep-13 14:27N 31°50' E 034°39'0 0.0
2017-Sep-13 13:27N 31°50' E 034°39'0 0.0
2017-Sep-13 12:33N 31°50' E 034°39'0 0.0
2017-Sep-13 12:27N 31°50' E 034°39'0 0.1
2017-Sep-13 04:35N 31°50' E 034°38'0 1.8
2017-Sep-13 04:30N 31°50' E 034°38'1 2.9
2017-Sep-13 04:00N 31°51' E 034°38'1 1.8
2017-Sep-13 03:30N 31°51' E 034°37'2 0.9
2017-Sep-13 01:21N 31°51' E 034°35'0 0.0
2017-Sep-13 00:39N 31°51' E 034°35'0 0.1
2017-Sep-13 00:26N 31°51' E 034°35'0 0.0
2017-Sep-12 18:36N 31°51' E 034°35'0 0.0
2017-Sep-12 18:12N 31°51' E 034°35'0 0.0
2017-Sep-12 16:05N 31°51' E 034°35'0 0.0
2017-Sep-12 15:59N 31°51' E 034°35'0 0.0
2017-Sep-12 13:22N 31°51' E 034°35'0 0.0
2017-Sep-12 12:51N 31°51' E 034°35'0 0.0
2017-Sep-12 12:09N 31°51' E 034°35'0 0.0
2017-Sep-12 11:51N 31°51' E 034°35'0 0.0
2017-Sep-12 11:09N 31°51' E 034°35'0 0.1
2017-Sep-12 09:33N 31°51' E 034°35'0 1.5
2017-Sep-12 09:30N 31°51' E 034°35'0 0.0
2017-Sep-12 08:52N 31°51' E 034°35'0 0.0
2017-Sep-12 08:28N 31°51' E 034°35'0 0.0
2017-Sep-12 07:57N 31°51' E 034°35'0 0.0
2017-Sep-12 06:27N 31°51' E 034°35'0 0.0
2017-Sep-12 05:56N 31°51' E 034°35'0 0.0
2017-Sep-12 02:49N 31°51' E 034°35'0 0.0
2017-Sep-12 02:13N 31°51' E 034°35'0 0.0
2017-Sep-11 23:54N 31°51' E 034°35'0 0.0
2017-Sep-11 02:13N 31°51' E 034°34'2 9.2
2017-Sep-11 02:01N 31°51' E 034°32'712.0
2017-Sep-11 01:27N 31°57' E 034°30'814.7
2017-Sep-11 00:54N 32°05' E 034°32'614.6
2017-Sep-11 00:30N 32°11' E 034°34'714.6
2017-Sep-11 00:01N 32°18' E 034°37'714.5
2017-Sep-10 23:31N 32°25' E 034°39'714.6
2017-Sep-10 23:00N 32°32' E 034°41'714.9
2017-Sep-10 22:31N 32°39' E 034°44'815.0
2017-Sep-10 22:00N 32°46' E 034°47'814.6
2017-Sep-10 21:29N 32°53' E 034°51'34 1.6
2017-Sep-09 23:59N 33°00' E 034°11'714.9
2017-Sep-09 23:30N 33°02' E 034°02'1214.8
2017-Sep-09 22:43N 33°07' E 033°50'415.0
2017-Sep-09 22:27N 33°09' E 033°46'714.9
2017-Sep-09 22:00N 33°12' E 033°39'1014.7
2017-Sep-09 21:20N 33°16' E 033°28'614.6
2017-Sep-09 20:57N 33°19' E 033°22'3314.9
2017-Sep-09 18:44N 33°34' E 032°47'1414.9
2017-Sep-09 17:46N 33°40' E 032°32'414.9
2017-Sep-09 17:30N 33°42' E 032°27'715.0
2017-Sep-09 17:00N 33°45' E 032°19'1614.9
2017-Sep-09 15:56N 33°53' E 032°02'714.9
2017-Sep-09 15:28N 33°57' E 031°56'714.9
2017-Sep-09 15:00N 34°01' E 031°48'815.0
2017-Sep-09 14:29N 34°05' E 031°40'814.9
2017-Sep-09 13:58N 34°08' E 031°32'715.0
2017-Sep-09 13:29N 34°12' E 031°24'715.2
2017-Sep-09 13:00N 34°15' E 031°16'815.3
2017-Sep-09 12:30N 34°18' E 031°08'815.4
2017-Sep-09 12:00N 34°22' E 030°60'815.5
2017-Sep-09 11:30N 34°26' E 030°52'815.4
2017-Sep-09 11:00N 34°29' E 030°43'815.1
2017-Sep-09 10:27N 34°33' E 030°34'28315.0
2017-Sep-08 15:39N 37°23' E 025°55'214.9
2017-Sep-08 15:30N 37°25' E 025°54'714.8
2017-Sep-08 15:00N 37°32' E 025°51'1015.2
2017-Sep-08 14:21N 37°42' E 025°50'  
Track history (hours):
 
Tides and Currents Weather Stations Pressure Air Temp Water Temp Dewpoint Dewpoint Depression Visibility Wind Speed Wind Dir Waves Ship Positions

Cristina A

Last reported at 2017-Sep-17 16:09 UTC. Time now 2017-Sep-22 10:09 UTC.
Position N 40°48' E 028°12'.

Length 184 m; draft 9.1 m.

Type: Ship (hazmat cat A). MMSI: 271001052.

Date/timePositionNaut miles runAvg speedWind from/ knotsBaromVisibWave heightAir tempDewpointWater temp
2017-Sep-17 16:09N 40°48' E 028°12'9814.0
2017-Sep-17 09:11N 40°03' E 026°17'314.3
2017-Sep-17 08:59N 40°02' E 026°14'14 7.8
2017-Sep-17 07:13N 39°56' E 025°58'3 8.0
2017-Sep-17 06:47N 39°54' E 025°55'13213.5
2017-Sep-16 21:03N 37°42' E 025°51'114.4
2017-Sep-16 21:00N 37°41' E 025°51'714.4
2017-Sep-16 20:30N 37°34' E 025°52'714.1
2017-Sep-16 20:00N 37°27' E 025°54'  
2017-Sep-14 14:58N 34°26' E 031°39'715.2
2017-Sep-14 14:31N 34°19' E 031°41'815.3
2017-Sep-14 14:00N 34°12' E 031°44'815.4
2017-Sep-14 13:30N 34°05' E 031°47'815.2
2017-Sep-14 12:59N 33°58' E 031°53'816.5
2017-Sep-14 12:29N 33°52' E 031°59'715.3
2017-Sep-14 12:00N 33°47' E 032°05'815.1
2017-Sep-14 11:27N 33°40' E 032°12'715.3
2017-Sep-14 11:00N 33°35' E 032°17'815.5
2017-Sep-14 10:30N 33°30' E 032°24'1115.5
2017-Sep-14 09:46N 33°21' E 032°33'415.4
2017-Sep-14 09:31N 33°18' E 032°36'1015.3
2017-Sep-14 08:50N 33°10' E 032°44'515.2
2017-Sep-14 08:30N 33°07' E 032°48'815.1
2017-Sep-14 07:59N 33°01' E 032°54'715.0
2017-Sep-14 07:31N 32°55' E 032°60'814.9
2017-Sep-14 07:00N 32°50' E 033°06'715.0
2017-Sep-14 06:31N 32°44' E 033°12'815.1
2017-Sep-14 05:59N 32°39' E 033°18'715.1
2017-Sep-14 05:30N 32°33' E 033°24'1315.3
2017-Sep-14 04:40N 32°24' E 033°34'715.3
2017-Sep-14 04:14N 32°19' E 033°40'315.2
2017-Sep-14 04:00N 32°16' E 033°42'815.3
2017-Sep-14 03:31N 32°11' E 033°48'815.4
2017-Sep-14 03:01N 32°06' E 033°56'815.4
2017-Sep-14 02:30N 32°03' E 034°04'815.2
2017-Sep-14 02:00N 31°59' E 034°12'815.0
2017-Sep-14 01:28N 31°56' E 034°21'17 2.2
2017-Sep-13 18:05N 31°50' E 034°39'0 0.0
2017-Sep-13 17:35N 31°50' E 034°39'0 0.0
2017-Sep-13 17:29N 31°50' E 034°39'0 0.0
2017-Sep-13 16:40N 31°50' E 034°39'0 0.0
2017-Sep-13 16:28N 31°50' E 034°39'0 0.0
2017-Sep-13 15:58N 31°50' E 034°39'0 0.0
2017-Sep-13 15:22N 31°50' E 034°39'0 0.0
2017-Sep-13 14:58N 31°50' E 034°39'0 0.0
2017-Sep-13 14:27N 31°50' E 034°39'0 0.0
2017-Sep-13 13:27N 31°50' E 034°39'0 0.0
2017-Sep-13 12:33N 31°50' E 034°39'0 0.0
2017-Sep-13 12:27N 31°50' E 034°39'0 0.1
2017-Sep-13 04:35N 31°50' E 034°38'0 1.8
2017-Sep-13 04:30N 31°50' E 034°38'1 2.9
2017-Sep-13 04:00N 31°51' E 034°38'1 1.8
2017-Sep-13 03:30N 31°51' E 034°37'2 0.9
2017-Sep-13 01:21N 31°51' E 034°35'0 0.0
2017-Sep-13 00:39N 31°51' E 034°35'0 0.1
2017-Sep-13 00:26N 31°51' E 034°35'0 0.0
2017-Sep-12 18:36N 31°51' E 034°35'0 0.0
2017-Sep-12 18:12N 31°51' E 034°35'0 0.0
2017-Sep-12 16:05N 31°51' E 034°35'0 0.0
2017-Sep-12 15:59N 31°51' E 034°35'0 0.0
2017-Sep-12 13:22N 31°51' E 034°35'0 0.0
2017-Sep-12 12:51N 31°51' E 034°35'0 0.0
2017-Sep-12 12:09N 31°51' E 034°35'0 0.0
2017-Sep-12 11:51N 31°51' E 034°35'0 0.0
2017-Sep-12 11:09N 31°51' E 034°35'0 0.1
2017-Sep-12 09:33N 31°51' E 034°35'0 1.5
2017-Sep-12 09:30N 31°51' E 034°35'0 0.0
2017-Sep-12 08:52N 31°51' E 034°35'0 0.0
2017-Sep-12 08:28N 31°51' E 034°35'0 0.0
2017-Sep-12 07:57N 31°51' E 034°35'0 0.0
2017-Sep-12 06:27N 31°51' E 034°35'0 0.0
2017-Sep-12 05:56N 31°51' E 034°35'0 0.0
2017-Sep-12 02:49N 31°51' E 034°35'0 0.0
2017-Sep-12 02:13N 31°51' E 034°35'0 0.0
2017-Sep-11 23:54N 31°51' E 034°35'0 0.0
2017-Sep-11 02:13N 31°51' E 034°34'2 9.2
2017-Sep-11 02:01N 31°51' E 034°32'712.0
2017-Sep-11 01:27N 31°57' E 034°30'814.7
2017-Sep-11 00:54N 32°05' E 034°32'614.6
2017-Sep-11 00:30N 32°11' E 034°34'714.6
2017-Sep-11 00:01N 32°18' E 034°37'714.5
2017-Sep-10 23:31N 32°25' E 034°39'714.6
2017-Sep-10 23:00N 32°32' E 034°41'714.9
2017-Sep-10 22:31N 32°39' E 034°44'815.0
2017-Sep-10 22:00N 32°46' E 034°47'814.6
2017-Sep-10 21:29N 32°53' E 034°51'34 1.6
2017-Sep-09 23:59N 33°00' E 034°11'714.9
2017-Sep-09 23:30N 33°02' E 034°02'1214.8
2017-Sep-09 22:43N 33°07' E 033°50'415.0
2017-Sep-09 22:27N 33°09' E 033°46'714.9
2017-Sep-09 22:00N 33°12' E 033°39'1014.7
2017-Sep-09 21:20N 33°16' E 033°28'614.6
2017-Sep-09 20:57N 33°19' E 033°22'3314.9
2017-Sep-09 18:44N 33°34' E 032°47'1414.9
2017-Sep-09 17:46N 33°40' E 032°32'414.9
2017-Sep-09 17:30N 33°42' E 032°27'715.0
2017-Sep-09 17:00N 33°45' E 032°19'1614.9
2017-Sep-09 15:56N 33°53' E 032°02'714.9
2017-Sep-09 15:28N 33°57' E 031°56'714.9
2017-Sep-09 15:00N 34°01' E 031°48'815.0
2017-Sep-09 14:29N 34°05' E 031°40'814.9
2017-Sep-09 13:58N 34°08' E 031°32'715.0
2017-Sep-09 13:29N 34°12' E 031°24'715.2
2017-Sep-09 13:00N 34°15' E 031°16'815.3
2017-Sep-09 12:30N 34°18' E 031°08'815.4
2017-Sep-09 12:00N 34°22' E 030°60'815.5
2017-Sep-09 11:30N 34°26' E 030°52'815.4
2017-Sep-09 11:00N 34°29' E 030°43'815.1
2017-Sep-09 10:27N 34°33' E 030°34'28315.0
2017-Sep-08 15:39N 37°23' E 025°55'214.9
2017-Sep-08 15:30N 37°25' E 025°54'714.8
2017-Sep-08 15:00N 37°32' E 025°51'1015.2
2017-Sep-08 14:21N 37°42' E 025°50'  

Dump ship's entire track history